Time;durP1;ratioP1;P1;durP2;ratioP2;P2;SDS_P1;SDS_P2;PMS_P1;PMS_P2;Temp;Humidity;BMP_temperature;BMP_pressure;BME280_temperature;BME280_humidity;BME280_pressure;Samples;Min_cycle;Max_cycle;Signal;HPM_P1;HPM_P2
2022/07/30 00:00:04;;;;;;;;;;;17.70;99.90;;;;;;5089524;28;20213;-68
2022/07/30 00:02:31;;;;;;;;;;;17.70;99.90;;;;;;5103152;28;19958;-68
2022/07/30 00:04:59;;;;;;;;;;;17.60;99.90;;;;;;5098532;28;19951;-69
2022/07/30 00:07:26;;;;;;;;;;;17.60;99.90;;;;;;5088503;28;19929;-69
2022/07/30 00:09:52;;;;;;;;;;;17.50;99.90;;;;;;5103150;28;19951;-69
2022/07/30 00:12:19;;;;;;;;;;;17.50;99.90;;;;;;5103481;28;20115;-69
2022/07/30 00:14:46;;;;;;;;;;;17.50;99.90;;;;;;5101836;28;19927;-69
2022/07/30 00:17:13;;;;;;;;;;;17.50;99.90;;;;;;5103386;28;19927;-68
2022/07/30 00:19:39;;;;;;;;;;;17.40;99.90;;;;;;5103150;28;19920;-68
2022/07/30 00:22:07;;;;;;;;;;;17.40;99.90;;;;;;5103243;28;20200;-68
2022/07/30 00:24:34;;;;;;;;;;;17.30;99.90;;;;;;5094372;28;19962;-68
2022/07/30 00:27:01;;;;;;;;;;;17.40;99.90;;;;;;5102713;28;19928;-68
2022/07/30 00:29:27;;;;;;;;;;;17.30;99.90;;;;;;5091655;28;20176;-68
2022/07/30 00:31:54;;;;;;;;;;;17.30;99.90;;;;;;5082736;28;19955;-68
2022/07/30 00:34:21;;;;;;;;;;;17.30;99.90;;;;;;5090268;28;19959;-69
2022/07/30 00:36:47;;;;;;;;;;;17.30;99.90;;;;;;5102913;28;19927;-68
2022/07/30 00:39:15;;;;;;;;;;;17.20;99.90;;;;;;5102845;28;19962;-69
2022/07/30 00:41:55;;;;;;;;;;;17.20;99.90;;;;;;5097205;28;20162;-69
2022/07/30 00:44:22;;;;;;;;;;;17.20;99.90;;;;;;5105467;28;19988;-69
2022/07/30 00:46:49;;;;;;;;;;;17.20;99.90;;;;;;5106398;28;19920;-68
2022/07/30 00:49:15;;;;;;;;;;;17.20;99.90;;;;;;5106735;28;19927;-68
2022/07/30 00:51:42;;;;;;;;;;;17.20;99.90;;;;;;5106491;28;19983;-69
2022/07/30 00:54:09;;;;;;;;;;;17.20;99.90;;;;;;5102942;28;19920;-69
2022/07/30 00:56:37;;;;;;;;;;;17.20;99.90;;;;;;5106559;28;19951;-69
2022/07/30 00:59:03;;;;;;;;;;;17.10;99.90;;;;;;5106477;28;20124;-69
2022/07/30 01:01:31;;;;;;;;;;;17.10;99.90;;;;;;5106318;28;20172;-68
2022/07/30 01:03:58;;;;;;;;;;;17.10;99.90;;;;;;5105024;28;19948;-69
2022/07/30 01:06:24;;;;;;;;;;;17.10;99.90;;;;;;5097739;28;19975;-68
2022/07/30 01:08:51;;;;;;;;;;;17.00;99.90;;;;;;5086063;28;19928;-68
2022/07/30 01:11:18;;;;;;;;;;;17.00;99.90;;;;;;5085989;28;19983;-69
2022/07/30 01:13:46;;;;;;;;;;;17.00;99.90;;;;;;5087556;28;19952;-68
2022/07/30 01:16:13;;;;;;;;;;;17.00;99.90;;;;;;5106652;28;19966;-68
2022/07/30 01:21:32;;;;;;;;;;;17.00;99.90;;;;;;5071964;28;19959;-69
2022/07/30 01:24:00;;;;;;;;;;;17.00;99.90;;;;;;5105245;28;19987;-68
2022/07/30 01:26:29;;;;;;;;;;;17.00;99.90;;;;;;5106383;28;19955;-68
2022/07/30 01:28:55;;;;;;;;;;;17.00;99.90;;;;;;5104201;28;19963;-68
2022/07/30 01:31:24;;;;;;;;;;;17.00;99.90;;;;;;5106233;28;19920;-68
2022/07/30 01:33:51;;;;;;;;;;;17.00;99.90;;;;;;5098384;28;19956;-69
2022/07/30 01:36:20;;;;;;;;;;;17.00;99.90;;;;;;5085611;28;19956;-68
2022/07/30 01:38:48;;;;;;;;;;;16.90;99.90;;;;;;5085691;28;19959;-69
2022/07/30 01:41:15;;;;;;;;;;;17.00;99.90;;;;;;5085750;28;19928;-69
2022/07/30 01:43:45;;;;;;;;;;;17.00;99.90;;;;;;5090195;28;20117;-69
2022/07/30 01:46:12;;;;;;;;;;;16.90;99.90;;;;;;5105871;28;19956;-68
2022/07/30 01:48:40;;;;;;;;;;;16.90;99.90;;;;;;5085906;28;19920;-68
2022/07/30 01:51:07;;;;;;;;;;;16.90;99.90;;;;;;5084719;28;19920;-68
2022/07/30 01:53:36;;;;;;;;;;;16.90;99.90;;;;;;5083477;28;20171;-69
2022/07/30 01:56:03;;;;;;;;;;;16.80;99.90;;;;;;5085174;28;19987;-68
2022/07/30 01:58:31;;;;;;;;;;;16.80;99.90;;;;;;5086556;28;19955;-68
2022/07/30 02:00:59;;;;;;;;;;;16.80;99.90;;;;;;5099456;28;20235;-68
2022/07/30 02:03:27;;;;;;;;;;;16.80;99.90;;;;;;5104079;28;19959;-68
2022/07/30 02:05:57;;;;;;;;;;;16.70;99.90;;;;;;5105117;28;19927;-68
2022/07/30 02:08:27;;;;;;;;;;;16.70;99.90;;;;;;5105623;28;20180;-69
2022/07/30 02:10:57;;;;;;;;;;;16.60;99.90;;;;;;5105240;28;19983;-68
2022/07/30 02:13:27;;;;;;;;;;;16.60;99.90;;;;;;5104628;28;20178;-68
2022/07/30 02:15:56;;;;;;;;;;;16.60;99.90;;;;;;5098168;28;19971;-68
2022/07/30 02:18:28;;;;;;;;;;;16.60;99.90;;;;;;5105363;28;19959;-68
2022/07/30 02:20:58;;;;;;;;;;;16.50;99.90;;;;;;5105115;28;19947;-69
2022/07/30 02:23:26;;;;;;;;;;;16.50;99.90;;;;;;5102285;28;19979;-68
2022/07/30 02:25:53;;;;;;;;;;;16.50;99.90;;;;;;5084765;28;19960;-69
2022/07/30 02:28:20;;;;;;;;;;;16.40;99.90;;;;;;5084583;28;20116;-68
2022/07/30 02:30:49;;;;;;;;;;;16.50;99.90;;;;;;5084700;28;19920;-68
2022/07/30 02:33:17;;;;;;;;;;;16.40;99.90;;;;;;5084530;28;20019;-69
2022/07/30 02:35:45;;;;;;;;;;;16.40;99.90;;;;;;5104554;28;19942;-69
2022/07/30 02:38:13;;;;;;;;;;;16.40;99.90;;;;;;5105213;28;20061;-69
2022/07/30 02:40:41;;;;;;;;;;;16.40;99.90;;;;;;5104790;28;19984;-69
2022/07/30 02:43:07;;;;;;;;;;;16.40;99.90;;;;;;5104390;28;19952;-68
2022/07/30 02:45:34;;;;;;;;;;;16.30;99.90;;;;;;5094976;28;20003;-69
2022/07/30 02:48:02;;;;;;;;;;;16.30;99.90;;;;;;5104461;28;19943;-68
2022/07/30 02:50:29;;;;;;;;;;;16.30;99.90;;;;;;5104570;28;19951;-69
2022/07/30 02:52:58;;;;;;;;;;;16.30;99.90;;;;;;5103946;28;19920;-69
2022/07/30 02:55:26;;;;;;;;;;;16.20;99.90;;;;;;5086143;28;19966;-68
2022/07/30 02:57:53;;;;;;;;;;;16.20;99.90;;;;;;5083949;28;20260;-68
2022/07/30 03:00:20;;;;;;;;;;;16.20;99.90;;;;;;5084423;28;19926;-68
2022/07/30 03:02:47;;;;;;;;;;;16.20;99.90;;;;;;5083980;28;19988;-69
2022/07/30 03:05:14;;;;;;;;;;;16.10;99.90;;;;;;5099674;28;19927;-69
2022/07/30 03:07:41;;;;;;;;;;;16.10;99.90;;;;;;5104026;28;19920;-69
2022/07/30 03:10:11;;;;;;;;;;;16.10;99.90;;;;;;5104288;28;19943;-68
2022/07/30 03:12:38;;;;;;;;;;;16.10;99.90;;;;;;5103790;28;19955;-68
2022/07/30 03:15:06;;;;;;;;;;;16.10;99.90;;;;;;5089163;28;19920;-68
2022/07/30 03:17:35;;;;;;;;;;;16.10;99.90;;;;;;5083866;28;19928;-68
2022/07/30 03:20:03;;;;;;;;;;;16.10;99.90;;;;;;5083781;28;19956;-68
2022/07/30 03:22:32;;;;;;;;;;;16.00;99.90;;;;;;5083609;28;19927;-69
2022/07/30 03:24:59;;;;;;;;;;;16.00;99.90;;;;;;5095997;28;19984;-68
2022/07/30 03:27:27;;;;;;;;;;;15.90;99.90;;;;;;5103988;28;19928;-69
2022/07/30 03:29:54;;;;;;;;;;;15.90;99.90;;;;;;5103644;28;19983;-69
2022/07/30 03:32:22;;;;;;;;;;;15.80;99.90;;;;;;5103844;28;19927;-68
2022/07/30 03:34:49;;;;;;;;;;;15.80;99.90;;;;;;5091102;28;19983;-69
2022/07/30 03:37:15;;;;;;;;;;;15.80;99.90;;;;;;5083477;28;19920;-68
2022/07/30 03:39:42;;;;;;;;;;;15.80;99.90;;;;;;5083385;28;20235;-68
2022/07/30 03:42:09;;;;;;;;;;;15.80;99.90;;;;;;5083740;28;19963;-68
2022/07/30 03:44:37;;;;;;;;;;;15.70;99.90;;;;;;5092555;28;19951;-68
2022/07/30 03:47:04;;;;;;;;;;;15.70;99.90;;;;;;5103403;28;19983;-69
2022/07/30 03:49:31;;;;;;;;;;;15.70;99.90;;;;;;5103762;28;19920;-68
2022/07/30 03:51:58;;;;;;;;;;;15.70;99.90;;;;;;5103572;28;20154;-68
2022/07/30 03:54:25;;;;;;;;;;;15.70;99.90;;;;;;5094753;28;19929;-69
2022/07/30 03:56:52;;;;;;;;;;;15.70;99.90;;;;;;5074712;28;19988;-68
2022/07/30 03:59:19;;;;;;;;;;;15.80;99.90;;;;;;5083323;28;19920;-68
2022/07/30 04:01:47;;;;;;;;;;;15.80;99.90;;;;;;5083553;28;20276;-69
2022/07/30 04:04:13;;;;;;;;;;;15.80;99.90;;;;;;5088172;28;19952;-69
2022/07/30 04:06:41;;;;;;;;;;;15.80;99.90;;;;;;5103109;28;19927;-68
2022/07/30 04:09:09;;;;;;;;;;;15.80;99.90;;;;;;5103279;28;19927;-68
2022/07/30 04:11:36;;;;;;;;;;;15.80;99.90;;;;;;5103287;28;19920;-68
2022/07/30 04:14:02;;;;;;;;;;;15.90;99.90;;;;;;5102428;28;19987;-68
2022/07/30 04:16:31;;;;;;;;;;;15.90;99.90;;;;;;5103621;28;19951;-68
2022/07/30 04:19:00;;;;;;;;;;;15.80;99.90;;;;;;5107322;28;19982;-68
2022/07/30 04:21:27;;;;;;;;;;;15.80;99.90;;;;;;5107264;28;19920;-68
2022/07/30 04:23:54;;;;;;;;;;;15.80;99.90;;;;;;5104035;28;19929;-68
2022/07/30 04:26:22;;;;;;;;;;;15.80;99.90;;;;;;5087410;28;19971;-69
2022/07/30 04:28:49;;;;;;;;;;;15.80;99.90;;;;;;5086981;28;19972;-68
2022/07/30 04:31:15;;;;;;;;;;;15.80;99.90;;;;;;5087069;28;19996;-69
2022/07/30 04:33:44;;;;;;;;;;;15.80;99.90;;;;;;5086835;28;19988;-68
2022/07/30 04:36:12;;;;;;;;;;;15.80;99.90;;;;;;5107113;28;19928;-68
2022/07/30 04:38:39;;;;;;;;;;;15.90;99.90;;;;;;5107318;28;19987;-68
2022/07/30 04:41:06;;;;;;;;;;;15.90;99.90;;;;;;5106741;28;20000;-68
2022/07/30 04:43:33;;;;;;;;;;;15.90;99.90;;;;;;5106528;28;19958;-69
2022/07/30 04:45:59;;;;;;;;;;;15.80;99.90;;;;;;5107018;28;19920;-69
2022/07/30 04:48:27;;;;;;;;;;;15.80;99.90;;;;;;5106613;28;19956;-69
2022/07/30 04:50:55;;;;;;;;;;;15.80;99.90;;;;;;5094927;28;19956;-69
2022/07/30 04:53:23;;;;;;;;;;;15.80;99.90;;;;;;5086031;28;19927;-69
2022/07/30 04:55:51;;;;;;;;;;;15.80;99.90;;;;;;5086622;28;19943;-68
2022/07/30 04:58:19;;;;;;;;;;;15.70;99.90;;;;;;5086393;28;20115;-68
2022/07/30 05:00:46;;;;;;;;;;;15.70;99.90;;;;;;5097016;28;20255;-67
2022/07/30 05:03:14;;;;;;;;;;;15.70;99.90;;;;;;5106303;28;19928;-67
2022/07/30 05:05:41;;;;;;;;;;;15.60;99.90;;;;;;5106808;28;19988;-67
2022/07/30 05:08:08;;;;;;;;;;;15.60;99.90;;;;;;5106714;28;19966;-68
2022/07/30 05:10:36;;;;;;;;;;;15.70;99.90;;;;;;5106091;28;19919;-67
2022/07/30 05:13:02;;;;;;;;;;;15.70;99.90;;;;;;5106006;28;20174;-67
2022/07/30 05:15:29;;;;;;;;;;;15.70;99.90;;;;;;5106295;28;20163;-68
2022/07/30 05:17:57;;;;;;;;;;;15.70;99.90;;;;;;5106672;28;19958;-68
2022/07/30 05:20:23;;;;;;;;;;;15.70;99.90;;;;;;5099142;28;19920;-67
2022/07/30 05:22:50;;;;;;;;;;;15.70;99.90;;;;;;5085507;28;20004;-67
2022/07/30 05:25:17;;;;;;;;;;;15.80;99.90;;;;;;5085846;28;19991;-68
2022/07/30 05:27:45;;;;;;;;;;;15.80;99.90;;;;;;5085591;28;19920;-68
2022/07/30 05:30:12;;;;;;;;;;;15.90;99.90;;;;;;5085881;28;19987;-67
2022/07/30 05:32:38;;;;;;;;;;;15.90;99.90;;;;;;5085710;28;19952;-67
2022/07/30 05:35:05;;;;;;;;;;;15.90;99.90;;;;;;5085711;28;19921;-67
2022/07/30 05:37:33;;;;;;;;;;;16.00;99.90;;;;;;5085790;28;19956;-67
2022/07/30 05:40:00;;;;;;;;;;;16.10;99.90;;;;;;5102861;28;19920;-68
2022/07/30 05:42:26;;;;;;;;;;;16.20;99.90;;;;;;5105919;28;19920;-68
2022/07/30 05:44:54;;;;;;;;;;;16.30;99.90;;;;;;5093861;28;19963;-68
2022/07/30 05:47:21;;;;;;;;;;;16.40;99.90;;;;;;5097262;28;19983;-68
2022/07/30 05:49:48;;;;;;;;;;;16.50;99.90;;;;;;5097834;28;20124;-68
2022/07/30 05:52:15;;;;;;;;;;;16.50;99.90;;;;;;5100127;28;20230;-67
2022/07/30 05:54:41;;;;;;;;;;;16.40;99.90;;;;;;5094797;28;19924;-67
2022/07/30 05:57:08;;;;;;;;;;;16.50;99.90;;;;;;5099330;28;20211;-67
2022/07/30 05:59:35;;;;;;;;;;;16.60;99.90;;;;;;5091252;28;19928;-67
2022/07/30 06:02:03;;;;;;;;;;;16.70;99.90;;;;;;5084152;28;19966;-68
2022/07/30 06:04:29;;;;;;;;;;;16.80;99.90;;;;;;5101333;28;19956;-68
2022/07/30 06:06:56;;;;;;;;;;;16.90;99.90;;;;;;5118431;28;19920;-68
2022/07/30 06:09:22;;;;;;;;;;;17.00;99.90;;;;;;5101754;28;19959;-68
2022/07/30 06:11:49;;;;;;;;;;;17.00;99.90;;;;;;5104254;28;19956;-67
2022/07/30 06:14:16;;;;;;;;;;;17.00;99.90;;;;;;5104156;28;19991;-68
2022/07/30 06:16:42;;;;;;;;;;;17.10;99.90;;;;;;5104346;28;19955;-67
2022/07/30 06:19:10;;;;;;;;;;;17.20;99.90;;;;;;5103643;28;20048;-69
2022/07/30 06:21:37;;;;;;;;;;;17.20;99.90;;;;;;5104438;28;19952;-68
2022/07/30 06:24:04;;;;;;;;;;;17.20;99.90;;;;;;5103607;28;19988;-68
2022/07/30 06:26:30;;;;;;;;;;;17.20;99.90;;;;;;5103828;28;20216;-68
2022/07/30 06:28:57;;;;;;;;;;;17.20;99.90;;;;;;5083837;28;19927;-68
2022/07/30 06:31:24;;;;;;;;;;;17.20;99.90;;;;;;5083661;28;19921;-68
2022/07/30 06:33:50;;;;;;;;;;;17.30;99.90;;;;;;5099368;28;19920;-69
2022/07/30 06:36:18;;;;;;;;;;;17.30;99.90;;;;;;5103724;28;19920;-68
2022/07/30 06:38:45;;;;;;;;;;;17.30;99.90;;;;;;5085927;28;19959;-68
2022/07/30 06:41:12;;;;;;;;;;;17.30;99.90;;;;;;5083052;28;19920;-67
2022/07/30 06:43:38;;;;;;;;;;;17.40;99.90;;;;;;5083334;28;19962;-68
2022/07/30 06:46:05;;;;;;;;;;;17.40;99.90;;;;;;5083766;28;19976;-68
2022/07/30 06:48:32;;;;;;;;;;;17.50;99.90;;;;;;5024543;28;1974197;-68
2022/07/30 06:50:58;;;;;;;;;;;17.50;99.90;;;;;;5100780;28;20008;-67
2022/07/30 06:53:26;;;;;;;;;;;17.50;99.90;;;;;;5101390;28;20140;-68
2022/07/30 06:55:53;;;;;;;;;;;17.50;99.90;;;;;;5104438;28;20115;-68
2022/07/30 06:58:20;;;;;;;;;;;17.60;99.90;;;;;;5089574;28;20124;-68
2022/07/30 07:00:46;;;;;;;;;;;17.60;99.90;;;;;;5098659;28;20207;-68
2022/07/30 07:03:13;;;;;;;;;;;17.70;99.90;;;;;;5104099;28;19942;-68
2022/07/30 07:05:40;;;;;;;;;;;17.80;99.90;;;;;;5104231;28;20275;-68
2022/07/30 07:08:06;;;;;;;;;;;17.80;99.90;;;;;;5091950;28;20180;-68
2022/07/30 07:10:34;;;;;;;;;;;17.80;99.90;;;;;;5083771;28;19921;-68
2022/07/30 07:13:01;;;;;;;;;;;17.90;99.90;;;;;;5083089;28;19980;-68
2022/07/30 07:15:28;;;;;;;;;;;17.90;99.90;;;;;;5083696;28;19927;-69
2022/07/30 07:17:54;;;;;;;;;;;17.90;99.90;;;;;;5093575;28;19947;-69
2022/07/30 07:20:21;;;;;;;;;;;17.90;99.90;;;;;;5103899;28;19920;-68
2022/07/30 07:22:48;;;;;;;;;;;18.00;99.90;;;;;;5087269;28;19928;-68
2022/07/30 07:25:15;;;;;;;;;;;18.00;99.90;;;;;;5103917;28;20166;-68
2022/07/30 07:27:43;;;;;;;;;;;18.00;99.90;;;;;;5103141;28;19983;-68
2022/07/30 07:30:10;;;;;;;;;;;18.10;99.90;;;;;;5091830;28;20180;-69
2022/07/30 07:32:36;;;;;;;;;;;18.10;99.90;;;;;;5083197;28;19987;-69
2022/07/30 07:35:03;;;;;;;;;;;18.20;99.90;;;;;;5102409;28;19920;-70
2022/07/30 07:37:30;;;;;;;;;;;18.20;99.90;;;;;;5103198;28;20207;-70
2022/07/30 07:39:57;;;;;;;;;;;18.30;99.90;;;;;;5104082;28;19983;-69
2022/07/30 07:42:23;;;;;;;;;;;18.40;99.90;;;;;;5103760;28;19955;-70
2022/07/30 07:44:51;;;;;;;;;;;18.50;99.90;;;;;;5094487;28;20207;-69
2022/07/30 07:47:18;;;;;;;;;;;18.60;99.90;;;;;;5099945;28;19987;-68
2022/07/30 07:49:44;;;;;;;;;;;18.60;99.90;;;;;;5096991;28;19927;-70
2022/07/30 07:52:11;;;;;;;;;;;18.60;99.90;;;;;;5103304;28;19955;-70
2022/07/30 07:54:38;;;;;;;;;;;18.60;99.90;;;;;;5102548;28;19955;-68
2022/07/30 07:57:06;;;;;;;;;;;18.70;99.90;;;;;;5101238;28;20240;-69
2022/07/30 07:59:33;;;;;;;;;;;18.80;99.90;;;;;;5094420;28;20005;-70
2022/07/30 08:02:01;;;;;;;;;;;18.80;99.90;;;;;;5097258;28;20174;-70
2022/07/30 08:04:28;;;;;;;;;;;18.90;99.90;;;;;;5097594;28;19927;-70
2022/07/30 08:06:54;;;;;;;;;;;19.00;99.90;;;;;;5103075;28;19920;-68
2022/07/30 08:09:21;;;;;;;;;;;19.10;99.90;;;;;;5094625;28;19999;-70
2022/07/30 08:11:47;;;;;;;;;;;19.20;99.90;;;;;;5083970;28;19935;-69
2022/07/30 08:14:14;;;;;;;;;;;19.30;99.90;;;;;;5101341;28;19920;-70
2022/07/30 08:16:41;;;;;;;;;;;19.40;99.90;;;;;;5102610;28;19920;-69
2022/07/30 08:19:09;;;;;;;;;;;19.40;99.90;;;;;;5100190;28;19963;-71
2022/07/30 08:21:36;;;;;;;;;;;19.40;99.90;;;;;;5103218;28;20199;-71
2022/07/30 08:24:04;;;;;;;;;;;19.40;99.90;;;;;;5102270;28;19947;-71
2022/07/30 08:26:32;;;;;;;;;;;19.50;99.90;;;;;;5101479;28;19920;-70
2022/07/30 08:28:58;;;;;;;;;;;19.60;99.90;;;;;;5091759;28;19920;-70
2022/07/30 08:31:25;;;;;;;;;;;19.60;99.90;;;;;;5103305;28;19951;-70
2022/07/30 08:33:52;;;;;;;;;;;19.70;99.90;;;;;;5102337;28;20246;-69
2022/07/30 08:36:21;;;;;;;;;;;19.80;99.90;;;;;;5096874;28;19920;-69
2022/07/30 08:38:47;;;;;;;;;;;19.90;99.90;;;;;;5090225;28;20203;-68
2022/07/30 08:41:17;;;;;;;;;;;19.90;99.90;;;;;;5101514;28;19979;-68
2022/07/30 08:43:46;;;;;;;;;;;19.80;99.90;;;;;;5102527;28;20111;-68
2022/07/30 08:46:13;;;;;;;;;;;19.80;99.90;;;;;;5083101;28;19952;-68
2022/07/30 08:48:41;;;;;;;;;;;19.80;99.90;;;;;;5098406;28;20215;-68
2022/07/30 08:51:08;;;;;;;;;;;19.90;99.90;;;;;;5102833;28;20241;-68
2022/07/30 08:53:37;;;;;;;;;;;19.90;99.90;;;;;;5102338;28;20163;-69
2022/07/30 08:56:03;;;;;;;;;;;19.90;99.90;;;;;;5102664;28;20242;-70
2022/07/30 08:58:32;;;;;;;;;;;20.00;99.90;;;;;;5095278;28;20247;-69
2022/07/30 09:00:59;;;;;;;;;;;20.10;99.90;;;;;;5101186;28;19920;-69
2022/07/30 09:03:25;;;;;;;;;;;20.20;99.90;;;;;;5094836;28;20228;-68
2022/07/30 09:05:52;;;;;;;;;;;20.20;99.90;;;;;;5111467;28;19920;-68
2022/07/30 09:08:19;;;;;;;;;;;20.30;99.90;;;;;;5107631;28;19958;-69
2022/07/30 09:10:48;;;;;;;;;;;20.40;99.90;;;;;;5095856;28;19994;-68
2022/07/30 09:13:25;;;;;;;;;;;20.40;99.90;;;;;;5105469;28;20227;-68
2022/07/30 09:15:52;;;;;;;;;;;20.50;99.90;;;;;;5090091;28;20148;-72
2022/07/30 09:18:27;;;;;;;;;;;20.50;99.90;;;;;;5086260;28;19956;-68
2022/07/30 09:20:53;;;;;;;;;;;20.60;99.90;;;;;;5086139;28;19928;-68
2022/07/30 09:23:20;;;;;;;;;;;20.70;99.90;;;;;;5085375;28;19920;-68
2022/07/30 09:25:49;;;;;;;;;;;20.70;99.90;;;;;;5085818;28;20200;-68
2022/07/30 09:28:16;;;;;;;;;;;20.70;99.90;;;;;;5100329;28;20085;-70
2022/07/30 09:30:43;;;;;;;;;;;20.80;99.90;;;;;;5106480;28;19920;-69
2022/07/30 09:33:10;;;;;;;;;;;20.80;99.90;;;;;;5105544;28;19920;-68
2022/07/30 09:35:37;;;;;;;;;;;20.90;99.90;;;;;;5089528;28;19962;-66
2022/07/30 09:38:03;;;;;;;;;;;21.00;99.90;;;;;;5085472;28;19926;-69
2022/07/30 09:40:30;;;;;;;;;;;20.90;99.90;;;;;;5092100;28;19921;-69
2022/07/30 09:43:08;;;;;;;;;;;21.00;99.90;;;;;;5084225;28;20019;-68
2022/07/30 09:45:35;;;;;;;;;;;21.10;99.90;;;;;;5098999;28;19927;-69
2022/07/30 09:48:02;;;;;;;;;;;21.20;99.90;;;;;;5106784;28;20120;-69
2022/07/30 09:50:28;;;;;;;;;;;21.10;99.90;;;;;;5105533;28;19927;-70
2022/07/30 09:53:05;;;;;;;;;;;21.20;99.90;;;;;;5105239;28;19987;-66
2022/07/30 09:55:33;;;;;;;;;;;21.10;99.90;;;;;;5094405;28;20123;-68
2022/07/30 09:58:00;;;;;;;;;;;21.20;99.90;;;;;;5099231;28;19949;-67
2022/07/30 10:00:29;;;;;;;;;;;21.20;99.90;;;;;;5105841;28;19927;-68
2022/07/30 10:02:56;;;;;;;;;;;21.20;99.90;;;;;;5104589;28;19927;-70
2022/07/30 10:05:23;;;;;;;;;;;21.30;99.90;;;;;;5105596;28;19928;-71
2022/07/30 10:07:50;;;;;;;;;;;21.40;99.90;;;;;;5103091;28;19958;-67
2022/07/30 10:10:18;;;;;;;;;;;21.50;99.90;;;;;;5089237;28;19983;-69
2022/07/30 10:12:45;;;;;;;;;;;21.50;99.90;;;;;;5107338;28;19920;-68
2022/07/30 10:15:13;;;;;;;;;;;21.60;99.90;;;;;;5104120;28;20116;-68
2022/07/30 10:17:41;;;;;;;;;;;21.80;99.90;;;;;;5099000;28;19985;-68
2022/07/30 10:20:08;;;;;;;;;;;21.70;99.90;;;;;;5104927;28;20362;-68
2022/07/30 10:22:35;;;;;;;;;;;21.80;99.90;;;;;;5103749;28;20298;-69
2022/07/30 10:25:01;;;;;;;;;;;21.90;99.90;;;;;;5102096;28;20135;-69
2022/07/30 10:27:28;;;;;;;;;;;22.10;99.90;;;;;;5083559;28;19979;-69
2022/07/30 10:29:56;;;;;;;;;;;22.20;99.90;;;;;;5083153;28;19920;-69
2022/07/30 10:32:23;;;;;;;;;;;22.20;99.90;;;;;;5101442;28;19955;-68
2022/07/30 10:34:51;;;;;;;;;;;22.30;99.90;;;;;;5103004;28;19958;-69
2022/07/30 10:37:19;;;;;;;;;;;22.50;99.90;;;;;;5097039;28;20279;-70
2022/07/30 10:39:50;;;;;;;;;;;22.40;99.90;;;;;;5094948;28;19956;-69
2022/07/30 10:42:21;;;;;;;;;;;22.20;99.90;;;;;;5089293;28;19978;-69
2022/07/30 10:45:12;;;;;;;;;;;22.10;99.90;;;;;;5100469;28;19920;-67
2022/07/30 10:47:39;;;;;;;;;;;22.10;99.90;;;;;;5096806;28;19920;-67
2022/07/30 10:50:08;;;;;;;;;;;22.30;99.90;;;;;;5084809;28;19927;-67
2022/07/30 10:52:50;;;;;;;;;;;22.30;99.90;;;;;;5101915;28;19928;-67
2022/07/30 10:55:17;;;;;;;;;;;22.40;99.90;;;;;;5084396;28;19929;-67
2022/07/30 10:58:00;;;;;;;;;;;22.50;99.90;;;;;;5097276;28;19990;-69
2022/07/30 11:00:27;;;;;;;;;;;22.70;99.90;;;;;;5103066;28;20246;-67
2022/07/30 11:03:12;;;;;;;;;;;22.90;99.90;;;;;;5083693;28;19987;-68
2022/07/30 11:05:40;;;;;;;;;;;23.10;99.90;;;;;;5084127;28;19991;-68
2022/07/30 11:08:26;;;;;;;;;;;23.30;99.90;;;;;;5089725;28;19920;-68
2022/07/30 11:10:52;;;;;;;;;;;23.50;99.90;;;;;;5100681;28;20231;-68
2022/07/30 11:13:39;;;;;;;;;;;23.70;99.90;;;;;;5103973;28;20164;-67
2022/07/30 11:16:06;;;;;;;;;;;23.60;99.90;;;;;;5083828;28;19942;-67
2022/07/30 11:18:52;;;;;;;;;;;23.60;99.90;;;;;;5091152;28;20118;-68
2022/07/30 11:21:20;;;;;;;;;;;23.60;99.90;;;;;;5083914;28;19958;-67
2022/07/30 11:23:47;;;;;;;;;;;23.60;99.90;;;;;;5083168;28;20231;-68
2022/07/30 11:26:28;;;;;;;;;;;23.70;99.90;;;;;;5094050;28;19927;-69
2022/07/30 11:28:55;;;;;;;;;;;23.70;99.90;;;;;;5099385;28;19943;-68
2022/07/30 11:31:30;;;;;;;;;;;23.60;99.90;;;;;;5096302;28;19991;-68
2022/07/30 11:34:15;;;;;;;;;;;23.70;99.90;;;;;;5084062;28;19920;-69
2022/07/30 11:36:57;;;;;;;;;;;23.70;99.90;;;;;;5083599;28;20287;-67
2022/07/30 11:39:45;;;;;;;;;;;23.80;99.90;;;;;;5095862;28;20254;-68
2022/07/30 11:42:24;;;;;;;;;;;23.90;99.90;;;;;;5086561;28;19979;-68
2022/07/30 11:44:51;;;;;;;;;;;24.20;99.90;;;;;;5082147;28;19956;-67
2022/07/30 11:47:27;;;;;;;;;;;24.30;99.90;;;;;;5083212;28;20223;-69
2022/07/30 11:49:54;;;;;;;;;;;24.40;99.90;;;;;;5083684;28;19962;-68
2022/07/30 11:52:22;;;;;;;;;;;24.50;99.90;;;;;;5083397;28;20176;-68
2022/07/30 11:54:54;;;;;;;;;;;24.60;99.90;;;;;;5080743;28;19920;-68
2022/07/30 11:57:21;;;;;;;;;;;24.70;99.90;;;;;;5083485;28;19963;-69
2022/07/30 11:59:53;;;;;;;;;;;24.90;99.90;;;;;;5083536;28;20200;-69
2022/07/30 12:02:26;;;;;;;;;;;25.00;99.90;;;;;;5088838;28;19952;-68
2022/07/30 12:04:53;;;;;;;;;;;25.20;99.90;;;;;;5104414;28;19920;-69
2022/07/30 12:07:22;;;;;;;;;;;25.30;99.90;;;;;;5098736;28;19927;-68
2022/07/30 12:09:48;;;;;;;;;;;25.40;99.90;;;;;;5096424;28;19927;-69
2022/07/30 12:12:22;;;;;;;;;;;25.50;99.90;;;;;;5103658;28;20337;-69
2022/07/30 12:14:49;;;;;;;;;;;25.50;99.90;;;;;;5103019;28;19924;-68
2022/07/30 12:17:15;;;;;;;;;;;25.60;99.90;;;;;;5086912;28;20208;-69
2022/07/30 12:19:45;;;;;;;;;;;25.80;99.90;;;;;;5084444;28;20038;-69
2022/07/30 12:22:13;;;;;;;;;;;25.60;99.90;;;;;;5090057;28;19983;-69
2022/07/30 12:24:40;;;;;;;;;;;25.50;99.90;;;;;;5092153;28;19927;-69
2022/07/30 12:27:07;;;;;;;;;;;25.50;99.90;;;;;;5103684;28;19920;-69
2022/07/30 12:29:35;;;;;;;;;;;25.50;99.90;;;;;;5089114;28;19920;-69
2022/07/30 12:32:02;;;;;;;;;;;25.60;99.90;;;;;;5083468;28;19965;-68
2022/07/30 12:34:28;;;;;;;;;;;25.50;99.90;;;;;;5079770;28;19958;-69
2022/07/30 12:36:55;;;;;;;;;;;25.50;99.90;;;;;;5091009;28;20151;-69
2022/07/30 12:39:23;;;;;;;;;;;25.60;99.90;;;;;;5099545;28;19962;-69
2022/07/30 12:41:51;;;;;;;;;;;25.80;99.90;;;;;;5107557;28;19920;-68
2022/07/30 12:44:36;;;;;;;;;;;25.90;99.90;;;;;;5104145;28;19924;-68
2022/07/30 12:47:03;;;;;;;;;;;26.00;99.90;;;;;;5107395;28;19927;-68
2022/07/30 12:49:30;;;;;;;;;;;26.00;99.90;;;;;;5107196;28;20269;-69
2022/07/30 12:51:56;;;;;;;;;;;26.10;99.90;;;;;;5106933;28;20085;-68
2022/07/30 12:54:23;;;;;;;;;;;26.30;99.90;;;;;;5098346;28;19963;-69
2022/07/30 12:56:57;;;;;;;;;;;26.10;99.90;;;;;;5098614;28;19991;-68
2022/07/30 12:59:24;;;;;;;;;;;26.30;99.90;;;;;;5106787;28;19928;-68
2022/07/30 13:01:59;;;;;;;;;;;26.50;99.90;;;;;;5103226;28;19921;-68
2022/07/30 13:04:26;;;;;;;;;;;26.60;99.90;;;;;;5086262;28;19920;-70
2022/07/30 13:07:03;;;;;;;;;;;26.70;99.90;;;;;;5086663;28;19925;-69
2022/07/30 13:09:30;;;;;;;;;;;26.60;99.90;;;;;;5086881;28;19991;-69
2022/07/30 13:11:57;;;;;;;;;;;26.40;99.90;;;;;;5104080;28;20322;-70
2022/07/30 13:14:24;;;;;;;;;;;26.40;99.90;;;;;;5106179;28;19995;-69
2022/07/30 13:16:53;;;;;;;;;;;26.50;99.90;;;;;;5106797;28;19961;-69
2022/07/30 13:19:28;;;;;;;;;;;26.50;99.60;;;;;;5103347;28;19932;-68
2022/07/30 13:21:54;;;;;;;;;;;26.50;99.90;;;;;;5106646;28;20173;-68
2022/07/30 13:24:21;;;;;;;;;;;26.60;99.90;;;;;;5106221;28;20030;-68
2022/07/30 13:26:48;;;;;;;;;;;26.60;99.90;;;;;;5105259;28;19927;-68
2022/07/30 13:29:15;;;;;;;;;;;26.70;99.90;;;;;;5092057;28;19927;-68
2022/07/30 13:31:42;;;;;;;;;;;26.80;99.90;;;;;;5083597;28;20167;-69
2022/07/30 13:34:08;;;;;;;;;;;26.80;99.90;;;;;;5097862;28;20123;-68
2022/07/30 13:36:36;;;;;;;;;;;26.80;99.90;;;;;;5093360;28;20172;-68
2022/07/30 13:39:03;;;;;;;;;;;26.80;99.80;;;;;;5102516;28;19952;-68
2022/07/30 13:41:30;;;;;;;;;;;26.90;99.20;;;;;;5097998;28;19955;-68
2022/07/30 13:43:56;;;;;;;;;;;27.10;99.70;;;;;;5103587;28;19948;-68
2022/07/30 13:46:23;;;;;;;;;;;27.10;99.00;;;;;;5101047;28;19924;-69
2022/07/30 13:48:50;;;;;;;;;;;27.20;98.20;;;;;;5100049;28;19947;-68
2022/07/30 13:51:16;;;;;;;;;;;27.20;97.40;;;;;;5100783;28;19979;-69
2022/07/30 13:53:44;;;;;;;;;;;27.10;97.10;;;;;;5102549;28;19955;-69
2022/07/30 13:56:11;;;;;;;;;;;27.20;97.60;;;;;;5095514;28;19980;-69
2022/07/30 13:58:38;;;;;;;;;;;27.30;96.00;;;;;;5100446;28;19991;-69
2022/07/30 14:01:05;;;;;;;;;;;27.30;96.30;;;;;;5096334;28;19983;-69
2022/07/30 14:03:32;;;;;;;;;;;27.30;97.30;;;;;;5098532;28;19920;-69
2022/07/30 14:05:58;;;;;;;;;;;27.20;96.60;;;;;;5103870;28;19920;-69
2022/07/30 14:08:27;;;;;;;;;;;27.40;96.50;;;;;;5098103;28;20752;-69
2022/07/30 14:10:55;;;;;;;;;;;27.50;96.10;;;;;;5107479;28;19967;-68
2022/07/30 14:13:22;;;;;;;;;;;27.70;96.50;;;;;;5102730;28;19963;-69
2022/07/30 14:15:48;;;;;;;;;;;27.50;96.30;;;;;;5099953;28;19920;-69
2022/07/30 14:18:15;;;;;;;;;;;27.50;96.30;;;;;;5098482;28;19920;-69
2022/07/30 14:20:42;;;;;;;;;;;27.60;96.70;;;;;;5091446;28;19958;-68
2022/07/30 14:23:08;;;;;;;;;;;27.70;95.80;;;;;;5103862;28;19920;-69